Wetterdaten: Woche 14.07.14 - 20.07.14 (KW29)
Datum Zeit Temp. Aussen +5cm Feuchte Auss Luftdruck Regen Sonnenschein Regendauer UV Solar Windben
14.07.2014 00:00 17,3 C 16,1 C 98 % 1007,7 hPa 0,6 l/m 0,00 h 0,40 h 0,0 UV-I 0 W/m 12,1 km/h (2 Bft)
14.07.2014 01:00 17,0 C 15,7 C 99 % 1008,0 hPa 0,2 l/m 0,00 h 0,00 h 0,0 UV-I 0 W/m 10,2 km/h (2 Bft)
14.07.2014 02:00 16,6 C 15,3 C 99 % 1008,3 hPa 0,0 l/m 0,00 h 0,00 h 0,0 UV-I 0 W/m 7,6 km/h (2 Bft)
14.07.2014 03:00 16,6 C 15,3 C 99 % 1008,5 hPa 0,0 l/m 0,00 h 0,00 h 0,0 UV-I 0 W/m 12,0 km/h (2 Bft)
14.07.2014 04:00 16,1 C 14,8 C 98 % 1008,8 hPa 0,0 l/m 0,00 h 0,00 h 0,0 UV-I 0 W/m 14,9 km/h (3 Bft)
14.07.2014 05:00 15,3 C 14,0 C 97 % 1009,3 hPa 0,0 l/m 0,00 h 0,00 h 0,0 UV-I 6 W/m 14,8 km/h (3 Bft)
14.07.2014 06:00 14,8 C 13,4 C 96 % 1009,8 hPa 0,0 l/m 0,00 h 0,00 h 0,0 UV-I 14 W/m 14,8 km/h (3 Bft)
14.07.2014 07:00 14,9 C 13,7 C 96 % 1010,2 hPa 0,0 l/m 0,00 h 0,00 h 0,0 UV-I 41 W/m 14,8 km/h (3 Bft)
14.07.2014 08:00 15,0 C 14,0 C 96 % 1010,7 hPa 0,0 l/m 0,00 h 0,00 h 0,0 UV-I 52 W/m 16,2 km/h (3 Bft)
14.07.2014 09:00 15,6 C 14,5 C 97 % 1011,2 hPa 0,0 l/m 0,00 h 0,00 h 0,0 UV-I 80 W/m 16,6 km/h (3 Bft)
14.07.2014 10:00 16,4 C 15,5 C 96 % 1011,8 hPa 0,0 l/m 0,00 h 0,00 h 0,7 UV-I 140 W/m 15,9 km/h (3 Bft)
14.07.2014 11:00 17,4 C 16,4 C 94 % 1012,3 hPa 0,0 l/m 0,00 h 0,00 h 0,8 UV-I 184 W/m 17,9 km/h (3 Bft)
14.07.2014 12:00 18,2 C 17,5 C 93 % 1012,9 hPa 0,0 l/m 0,00 h 0,00 h 1,5 UV-I 262 W/m 19,8 km/h (4 Bft)
14.07.2014 13:00 19,0 C 19,4 C 91 % 1013,4 hPa 0,0 l/m 0,00 h 0,00 h 1,8 UV-I 292 W/m 17,9 km/h (3 Bft)
14.07.2014 14:00 20,8 C 21,5 C 87 % 1013,6 hPa 0,0 l/m 0,63 h 0,00 h 2,8 UV-I 460 W/m 17,0 km/h (3 Bft)
14.07.2014 15:00 21,7 C 21,4 C 83 % 1013,8 hPa 0,0 l/m 0,33 h 0,10 h 2,3 UV-I 333 W/m 15,2 km/h (3 Bft)
14.07.2014 16:00 22,7 C 24,3 C 73 % 1014,0 hPa 0,0 l/m 0,47 h 0,00 h 2,1 UV-I 414 W/m 17,3 km/h (3 Bft)
14.07.2014 17:00 23,4 C 22,4 C 66 % 1014,2 hPa 0,0 l/m 0,73 h 0,00 h 1,1 UV-I 434 W/m 18,8 km/h (3 Bft)
14.07.2014 18:00 22,4 C 20,8 C 67 % 1014,4 hPa 0,0 l/m 0,60 h 0,00 h 0,5 UV-I 246 W/m 18,0 km/h (3 Bft)
14.07.2014 19:00 22,0 C 20,6 C 67 % 1014,8 hPa 0,0 l/m 0,67 h 0,00 h 0,0 UV-I 218 W/m 14,2 km/h (3 Bft)
14.07.2014 20:00 20,8 C 18,7 C 72 % 1015,2 hPa 0,0 l/m 0,47 h 0,00 h 0,0 UV-I 75 W/m 9,5 km/h (2 Bft)
14.07.2014 21:00 18,9 C 16,5 C 79 % 1015,8 hPa 0,0 l/m 0,10 h 0,00 h 0,0 UV-I 16 W/m 2,7 km/h (1 Bft)
14.07.2014 22:00 16,9 C 14,6 C 85 % 1016,5 hPa 0,0 l/m 0,00 h 0,00 h 0,0 UV-I 0 W/m 0,1 km/h (0 Bft)
14.07.2014 23:00 15,6 C 13,7 C 91 % 1017,2 hPa 0,0 l/m 0,00 h 0,00 h 0,0 UV-I 0 W/m 0,0 km/h (0 Bft)
15.07.2014 00:00 14,5 C 13,0 C 95 % 1017,6 hPa 0,0 l/m 0,00 h 0,00 h 0,0 UV-I 0 W/m 0,0 km/h (0 Bft)
15.07.2014 01:00 13,9 C 12,3 C 96 % 1017,9 hPa 0,0 l/m 0,00 h 0,00 h 0,0 UV-I 0 W/m 0,0 km/h (0 Bft)
15.07.2014 02:00 13,3 C 11,8 C 97 % 1017,9 hPa 0,0 l/m 0,00 h 0,00 h 0,0 UV-I 0 W/m 0,0 km/h (0 Bft)
15.07.2014 03:00 13,2 C 11,9 C 98 % 1018,0 hPa 0,0 l/m 0,00 h 0,00 h 0,0 UV-I 0 W/m 3,1 km/h (1 Bft)
15.07.2014 04:00 13,6 C 12,2 C 96 % 1018,2 hPa 0,0 l/m 0,00 h 0,00 h 0,0 UV-I 0 W/m 7,0 km/h (2 Bft)
15.07.2014 05:00 13,5 C 12,0 C 92 % 1018,4 hPa 0,0 l/m 0,17 h 0,00 h 0,0 UV-I 11 W/m 7,1 km/h (2 Bft)
15.07.2014 06:00 13,5 C 12,2 C 90 % 1018,6 hPa 0,0 l/m 0,67 h 0,00 h 0,0 UV-I 73 W/m 8,7 km/h (2 Bft)
15.07.2014 07:00 14,4 C 13,1 C 87 % 1018,9 hPa 0,0 l/m 1,00 h 0,00 h 0,0 UV-I 238 W/m 13,2 km/h (3 Bft)
15.07.2014 08:00 16,0 C 15,0 C 85 % 1019,2 hPa 0,0 l/m 0,40 h 0,00 h 0,0 UV-I 203 W/m 14,6 km/h (3 Bft)
15.07.2014 09:00 17,1 C 16,7 C 84 % 1019,3 hPa 0,0 l/m 0,03 h 0,00 h 0,7 UV-I 214 W/m 13,3 km/h (3 Bft)
15.07.2014 10:00 18,5 C 18,2 C 83 % 1019,5 hPa 0,0 l/m 0,00 h 0,00 h 0,9 UV-I 230 W/m 14,6 km/h (3 Bft)
15.07.2014 11:00 18,3 C 17,4 C 83 % 1019,8 hPa 0,0 l/m 0,00 h 0,00 h 0,6 UV-I 136 W/m 17,8 km/h (3 Bft)
15.07.2014 12:00 17,7 C 17,2 C 88 % 1020,1 hPa 0,0 l/m 0,00 h 0,00 h 1,0 UV-I 157 W/m 15,8 km/h (3 Bft)
15.07.2014 13:00 18,5 C 17,9 C 87 % 1020,3 hPa 0,0 l/m 0,00 h 0,00 h 0,8 UV-I 134 W/m 13,6 km/h (3 Bft)
15.07.2014 14:00 19,0 C 18,7 C 86 % 1020,5 hPa 0,0 l/m 0,00 h 0,00 h 1,0 UV-I 176 W/m 13,1 km/h (3 Bft)
15.07.2014 15:00 19,7 C 19,4 C 84 % 1020,6 hPa 0,0 l/m 0,00 h 0,00 h 1,2 UV-I 216 W/m 13,9 km/h (3 Bft)
15.07.2014 16:00 19,9 C 19,3 C 83 % 1020,6 hPa 0,0 l/m 0,00 h 0,00 h 0,7 UV-I 178 W/m 15,8 km/h (3 Bft)
15.07.2014 17:00 20,1 C 19,6 C 84 % 1020,7 hPa 0,0 l/m 0,00 h 0,00 h 0,5 UV-I 167 W/m 13,1 km/h (3 Bft)
15.07.2014 18:00 20,7 C 20,2 C 83 % 1020,6 hPa 0,0 l/m 0,07 h 0,00 h 0,5 UV-I 188 W/m 11,2 km/h (2 Bft)
15.07.2014 19:00 21,0 C 20,1 C 82 % 1020,6 hPa 0,0 l/m 0,00 h 0,00 h 0,0 UV-I 127 W/m 7,4 km/h (2 Bft)
15.07.2014 20:00 20,6 C 19,2 C 83 % 1020,5 hPa 0,0 l/m 0,00 h 0,00 h 0,0 UV-I 53 W/m 0,4 km/h (0 Bft)
15.07.2014 21:00 20,0 C 18,1 C 84 % 1020,7 hPa 0,0 l/m 0,00 h 0,00 h 0,0 UV-I 12 W/m 2,1 km/h (1 Bft)
15.07.2014 22:00 19,4 C 17,4 C 87 % 1021,0 hPa 0,0 l/m 0,00 h 0,00 h 0,0 UV-I 0 W/m 1,0 km/h (0 Bft)
15.07.2014 23:00 18,8 C 16,9 C 90 % 1021,3 hPa 0,0 l/m 0,00 h 0,00 h 0,0 UV-I 0 W/m 0,1 km/h (0 Bft)
16.07.2014 00:00 18,3 C 16,7 C 93 % 1021,5 hPa 0,0 l/m 0,00 h 0,00 h 0,0 UV-I 0 W/m 0,2 km/h (0 Bft)
16.07.2014 01:00 17,6 C 16,1 C 95 % 1021,5 hPa 0,0 l/m 0,00 h 0,00 h 0,0 UV-I 0 W/m 0,0 km/h (0 Bft)
16.07.2014 02:00 16,8 C 15,2 C 96 % 1021,5 hPa 0,0 l/m 0,00 h 0,00 h 0,0 UV-I 0 W/m 0,0 km/h (0 Bft)
16.07.2014 03:00 16,3 C 14,9 C 97 % 1021,6 hPa 0,0 l/m 0,00 h 0,00 h 0,0 UV-I 0 W/m 0,0 km/h (0 Bft)
16.07.2014 04:00 16,0 C 14,4 C 98 % 1021,6 hPa 0,0 l/m 0,00 h 0,00 h 0,0 UV-I 0 W/m 0,0 km/h (0 Bft)
16.07.2014 05:00 15,5 C 14,1 C 98 % 1021,6 hPa 0,0 l/m 0,00 h 0,00 h 0,0 UV-I 8 W/m 0,0 km/h (0 Bft)
16.07.2014 06:00 15,0 C 13,5 C 99 % 1021,6 hPa 0,0 l/m 0,50 h 0,00 h 0,0 UV-I 57 W/m 0,0 km/h (0 Bft)
16.07.2014 07:00 16,1 C 14,7 C 99 % 1021,8 hPa 0,0 l/m 0,98 h 0,00 h 0,0 UV-I 209 W/m 0,0 km/h (0 Bft)
16.07.2014 08:00 18,1 C 16,4 C 97 % 1021,6 hPa 0,0 l/m 1,00 h 0,00 h 0,7 UV-I 370 W/m 0,6 km/h (0 Bft)
16.07.2014 09:00 21,1 C 18,9 C 85 % 1021,7 hPa 0,0 l/m 1,00 h 0,00 h 1,5 UV-I 543 W/m 1,2 km/h (1 Bft)
16.07.2014 10:00 22,9 C 25,6 C 76 % 1021,6 hPa 0,0 l/m 0,90 h 0,00 h 2,6 UV-I 606 W/m 6,4 km/h (2 Bft)
16.07.2014 11:00 23,8 C 25,7 C 71 % 1021,6 hPa 0,0 l/m 0,60 h 0,00 h 2,5 UV-I 490 W/m 8,9 km/h (2 Bft)
16.07.2014 12:00 23,6 C 25,4 C 71 % 1021,7 hPa 0,0 l/m 0,47 h 0,00 h 3,6 UV-I 479 W/m 7,3 km/h (2 Bft)
16.07.2014 13:00 25,9 C 26,6 C 62 % 1021,5 hPa 0,0 l/m 0,97 h 0,00 h 5,0 UV-I 877 W/m 11,0 km/h (2 Bft)
16.07.2014 14:00 25,8 C 25,4 C 60 % 1021,1 hPa 0,0 l/m 0,70 h 0,00 h 3,8 UV-I 620 W/m 6,5 km/h (2 Bft)
16.07.2014 15:00 26,8 C 25,9 C 57 % 1020,8 hPa 0,0 l/m 0,87 h 0,00 h 3,7 UV-I 685 W/m 10,7 km/h (2 Bft)
16.07.2014 16:00 27,2 C 28,9 C 54 % 1020,5 hPa 0,0 l/m 1,00 h 0,00 h 3,0 UV-I 666 W/m 9,4 km/h (2 Bft)
16.07.2014 17:00 27,3 C 25,9 C 54 % 1020,4 hPa 0,0 l/m 1,00 h 0,00 h 1,3 UV-I 526 W/m 11,5 km/h (2 Bft)
16.07.2014 18:00 26,3 C 22,3 C 56 % 1020,3 hPa 0,0 l/m 0,90 h 0,00 h 0,6 UV-I 354 W/m 9,7 km/h (2 Bft)
16.07.2014 19:00 25,4 C 18,7 C 58 % 1020,1 hPa 0,0 l/m 1,00 h 0,00 h 0,0 UV-I 209 W/m 7,8 km/h (2 Bft)
16.07.2014 20:00 24,6 C 20,1 C 63 % 1020,1 hPa 0,0 l/m 0,30 h 0,00 h 0,0 UV-I 69 W/m 1,7 km/h (1 Bft)
16.07.2014 21:00 22,4 C 18,1 C 75 % 1020,3 hPa 0,0 l/m 0,00 h 0,00 h 0,0 UV-I 13 W/m 0,0 km/h (0 Bft)
16.07.2014 22:00 20,1 C 17,1 C 84 % 1020,7 hPa 0,0 l/m 0,00 h 0,00 h 0,0 UV-I 0 W/m 0,0 km/h (0 Bft)
16.07.2014 23:00 18,6 C 16,3 C 89 % 1020,9 hPa 0,0 l/m 0,00 h 0,00 h 0,0 UV-I 0 W/m 0,0 km/h (0 Bft)
17.07.2014 00:00 17,5 C 15,5 C 92 % 1021,1 hPa 0,0 l/m 0,00 h 0,00 h 0,0 UV-I 0 W/m 0,0 km/h (0 Bft)
17.07.2014 01:00 17,0 C 15,0 C 94 % 1021,1 hPa 0,0 l/m 0,00 h 0,00 h 0,0 UV-I 0 W/m 0,0 km/h (0 Bft)
17.07.2014 02:00 16,3 C 14,5 C 95 % 1021,0 hPa 0,0 l/m 0,00 h 0,00 h 0,0 UV-I 0 W/m 0,0 km/h (0 Bft)
17.07.2014 03:00 15,9 C 14,2 C 96 % 1020,9 hPa 0,0 l/m 0,00 h 0,00 h 0,0 UV-I 0 W/m 0,0 km/h (0 Bft)
17.07.2014 04:00 15,6 C 13,9 C 97 % 1020,9 hPa 0,0 l/m 0,00 h 0,00 h 0,0 UV-I 0 W/m 0,0 km/h (0 Bft)
17.07.2014 05:00 15,4 C 13,9 C 97 % 1020,9 hPa 0,0 l/m 0,13 h 0,00 h 0,0 UV-I 11 W/m 0,0 km/h (0 Bft)
17.07.2014 06:00 15,6 C 14,5 C 98 % 1020,8 hPa 0,0 l/m 0,97 h 0,00 h 0,0 UV-I 83 W/m 0,4 km/h (0 Bft)
17.07.2014 07:00 17,1 C 16,1 C 95 % 1021,0 hPa 0,0 l/m 1,00 h 0,00 h 0,0 UV-I 214 W/m 3,2 km/h (1 Bft)
17.07.2014 08:00 19,6 C 18,2 C 89 % 1021,1 hPa 0,0 l/m 0,87 h 0,00 h 0,4 UV-I 289 W/m 6,0 km/h (2 Bft)
17.07.2014 09:00 22,0 C 20,2 C 82 % 1021,3 hPa 0,0 l/m 1,00 h 0,00 h 1,3 UV-I 476 W/m 8,5 km/h (2 Bft)
17.07.2014 10:00 24,6 C 26,9 C 73 % 1021,5 hPa 0,0 l/m 1,00 h 0,00 h 2,4 UV-I 587 W/m 6,0 km/h (2 Bft)
17.07.2014 11:00 26,9 C 29,7 C 64 % 1021,3 hPa 0,0 l/m 1,00 h 0,00 h 4,0 UV-I 736 W/m 7,4 km/h (2 Bft)
17.07.2014 12:00 28,0 C 31,5 C 58 % 1021,2 hPa 0,0 l/m 0,90 h 0,00 h 4,9 UV-I 773 W/m 9,5 km/h (2 Bft)
17.07.2014 13:00 28,1 C 28,0 C 56 % 1021,0 hPa 0,0 l/m 0,70 h 0,00 h 4,1 UV-I 655 W/m 7,5 km/h (2 Bft)
17.07.2014 14:00 28,9 C 27,8 C 55 % 1020,7 hPa 0,0 l/m 1,00 h 0,00 h 4,7 UV-I 846 W/m 5,5 km/h (1 Bft)
17.07.2014 15:00 28,3 C 27,1 C 55 % 1020,3 hPa 0,0 l/m 0,47 h 0,00 h 2,8 UV-I 456 W/m 6,0 km/h (2 Bft)
17.07.2014 16:00 28,0 C 22,0 C 57 % 1020,0 hPa 0,0 l/m 0,83 h 0,00 h 2,5 UV-I 576 W/m 6,9 km/h (2 Bft)
17.07.2014 17:00 28,4 C 27,4 C 55 % 1019,8 hPa 0,0 l/m 1,00 h 0,00 h 1,3 UV-I 480 W/m 6,0 km/h (2 Bft)
17.07.2014 18:00 28,2 C 26,0 C 56 % 1019,2 hPa 0,0 l/m 0,97 h 0,00 h 0,6 UV-I 333 W/m 10,5 km/h (2 Bft)
17.07.2014 19:00 27,8 C 25,6 C 57 % 1018,9 hPa 0,0 l/m 1,00 h 0,00 h 0,0 UV-I 194 W/m 12,3 km/h (3 Bft)
17.07.2014 20:00 26,7 C 24,7 C 62 % 1018,8 hPa 0,0 l/m 0,23 h 0,00 h 0,0 UV-I 66 W/m 10,3 km/h (2 Bft)
17.07.2014 21:00 25,0 C 22,5 C 67 % 1018,9 hPa 0,0 l/m 0,03 h 0,00 h 0,0 UV-I 13 W/m 5,6 km/h (1 Bft)
17.07.2014 22:00 22,7 C 19,6 C 77 % 1019,2 hPa 0,0 l/m 0,00 h 0,00 h 0,0 UV-I 0 W/m 0,3 km/h (0 Bft)
17.07.2014 23:00 21,3 C 18,5 C 82 % 1019,3 hPa 0,0 l/m 0,00 h 0,00 h 0,0 UV-I 0 W/m 0,0 km/h (0 Bft)
18.07.2014 00:00 20,4 C 17,8 C 85 % 1019,1 hPa 0,0 l/m 0,00 h 0,00 h 0,0 UV-I 0 W/m 0,0 km/h (0 Bft)
18.07.2014 01:00 19,6 C 17,2 C 88 % 1018,8 hPa 0,0 l/m 0,00 h 0,00 h 0,0 UV-I 0 W/m 0,0 km/h (0 Bft)
18.07.2014 02:00 18,8 C 16,6 C 92 % 1018,4 hPa 0,0 l/m 0,00 h 0,00 h 0,0 UV-I 0 W/m 0,0 km/h (0 Bft)
18.07.2014 03:00 18,2 C 16,1 C 93 % 1018,0 hPa 0,0 l/m 0,00 h 0,00 h 0,0 UV-I 0 W/m 0,0 km/h (0 Bft)
18.07.2014 04:00 17,5 C 15,7 C 95 % 1017,8 hPa 0,0 l/m 0,00 h 0,00 h 0,0 UV-I 0 W/m 0,0 km/h (0 Bft)
18.07.2014 05:00 17,6 C 15,6 C 94 % 1017,7 hPa 0,0 l/m 0,10 h 0,00 h 0,0 UV-I 10 W/m 0,0 km/h (0 Bft)
18.07.2014 06:00 17,8 C 15,8 C 93 % 1017,7 hPa 0,0 l/m 0,80 h 0,00 h 0,0 UV-I 65 W/m 1,1 km/h (1 Bft)
18.07.2014 07:00 19,2 C 17,5 C 89 % 1017,7 hPa 0,0 l/m 1,00 h 0,00 h 0,0 UV-I 216 W/m 10,7 km/h (2 Bft)
18.07.2014 08:00 21,6 C 19,6 C 82 % 1017,6 hPa 0,0 l/m 1,00 h 0,00 h 0,7 UV-I 367 W/m 14,1 km/h (3 Bft)
18.07.2014 09:00 24,9 C 22,2 C 73 % 1017,4 hPa 0,0 l/m 1,00 h 0,00 h 1,6 UV-I 515 W/m 13,9 km/h (3 Bft)
18.07.2014 10:00 27,5 C 30,1 C 66 % 1016,8 hPa 0,0 l/m 1,00 h 0,00 h 2,9 UV-I 641 W/m 16,1 km/h (3 Bft)
18.07.2014 11:00 29,6 C 31,9 C 57 % 1016,6 hPa 0,0 l/m 1,00 h 0,00 h 4,1 UV-I 731 W/m 16,7 km/h (3 Bft)
18.07.2014 12:00 31,2 C 33,4 C 51 % 1016,2 hPa 0,0 l/m 0,83 h 0,00 h 4,8 UV-I 638 W/m 19,1 km/h (3 Bft)
18.07.2014 13:00 32,1 C 31,1 C 47 % 1015,7 hPa 0,0 l/m 1,00 h 0,00 h 4,9 UV-I 751 W/m 18,9 km/h (3 Bft)
18.07.2014 14:00 32,9 C 31,1 C 45 % 1015,2 hPa 0,0 l/m 1,00 h 0,00 h 5,1 UV-I 773 W/m 20,9 km/h (4 Bft)
18.07.2014 15:00 33,6 C 31,8 C 44 % 1014,8 hPa 0,0 l/m 1,00 h 0,00 h 4,2 UV-I 696 W/m 17,8 km/h (3 Bft)
18.07.2014 16:00 33,9 C 34,2 C 44 % 1014,4 hPa 0,0 l/m 1,00 h 0,00 h 3,0 UV-I 593 W/m 16,9 km/h (3 Bft)
18.07.2014 17:00 33,6 C 32,2 C 46 % 1013,8 hPa 0,0 l/m 1,00 h 0,00 h 1,5 UV-I 473 W/m 15,8 km/h (3 Bft)
18.07.2014 18:00 32,7 C 29,3 C 47 % 1013,4 hPa 0,0 l/m 0,97 h 0,00 h 0,8 UV-I 333 W/m 17,6 km/h (3 Bft)
18.07.2014 19:00 31,6 C 26,1 C 49 % 1013,2 hPa 0,0 l/m 1,00 h 0,00 h 0,6 UV-I 194 W/m 15,3 km/h (3 Bft)
18.07.2014 20:00 30,4 C 25,9 C 51 % 1013,1 hPa 0,0 l/m 0,27 h 0,00 h 0,4 UV-I 63 W/m 12,3 km/h (3 Bft)
18.07.2014 21:00 28,2 C 23,6 C 58 % 1012,9 hPa 0,0 l/m 0,07 h 0,00 h 0,0 UV-I 11 W/m 3,4 km/h (1 Bft)
18.07.2014 22:00 26,1 C 21,8 C 63 % 1012,9 hPa 0,0 l/m 0,00 h 0,00 h 0,0 UV-I 0 W/m 3,4 km/h (1 Bft)
18.07.2014 23:00 24,9 C 21,2 C 67 % 1013,7 hPa 0,0 l/m 0,00 h 0,00 h 0,0 UV-I 0 W/m 6,5 km/h (2 Bft)
19.07.2014 00:00 24,1 C 20,9 C 67 % 1013,5 hPa 0,0 l/m 0,00 h 0,00 h 0,0 UV-I 0 W/m 6,8 km/h (2 Bft)
19.07.2014 01:00 23,4 C 20,9 C 67 % 1013,5 hPa 0,0 l/m 0,00 h 0,00 h 0,0 UV-I 0 W/m 10,1 km/h (2 Bft)
19.07.2014 02:00 22,8 C 20,6 C 68 % 1013,2 hPa 0,0 l/m 0,00 h 0,00 h 0,0 UV-I 0 W/m 9,9 km/h (2 Bft)
19.07.2014 03:00 22,3 C 20,2 C 69 % 1012,7 hPa 0,0 l/m 0,00 h 0,00 h 0,0 UV-I 0 W/m 11,9 km/h (2 Bft)
19.07.2014 04:00 21,5 C 19,2 C 72 % 1012,7 hPa 0,0 l/m 0,00 h 0,00 h 0,0 UV-I 0 W/m 6,5 km/h (2 Bft)
19.07.2014 05:00 20,8 C 18,9 C 74 % 1012,5 hPa 0,0 l/m 0,10 h 0,00 h 0,0 UV-I 9 W/m 10,0 km/h (2 Bft)
19.07.2014 06:00 20,5 C 18,8 C 76 % 1012,8 hPa 0,0 l/m 0,70 h 0,00 h 0,0 UV-I 70 W/m 9,7 km/h (2 Bft)
19.07.2014 07:00 21,7 C 19,7 C 73 % 1012,6 hPa 0,0 l/m 1,00 h 0,00 h 0,0 UV-I 219 W/m 13,2 km/h (3 Bft)
19.07.2014 08:00 24,0 C 21,7 C 67 % 1012,3 hPa 0,0 l/m 1,00 h 0,00 h 0,7 UV-I 383 W/m 17,3 km/h (3 Bft)
19.07.2014 09:00 26,3 C 23,8 C 62 % 1012,2 hPa 0,0 l/m 1,00 h 0,00 h 1,5 UV-I 465 W/m 18,7 km/h (3 Bft)
19.07.2014 10:00 28,9 C 30,9 C 57 % 1011,9 hPa 0,0 l/m 1,00 h 0,00 h 2,9 UV-I 631 W/m 19,1 km/h (3 Bft)
19.07.2014 11:00 31,3 C 33,2 C 51 % 1011,4 hPa 0,0 l/m 1,00 h 0,00 h 4,3 UV-I 726 W/m 22,4 km/h (4 Bft)
19.07.2014 12:00 32,7 C 34,8 C 45 % 1011,0 hPa 0,0 l/m 0,80 h 0,00 h 5,1 UV-I 670 W/m 28,9 km/h (5 Bft)
19.07.2014 13:00 33,3 C 32,2 C 42 % 1010,8 hPa 0,0 l/m 1,00 h 0,00 h 5,1 UV-I 803 W/m 32,3 km/h (5 Bft)
19.07.2014 14:00 33,8 C 32,1 C 42 % 1010,4 hPa 0,0 l/m 1,00 h 0,00 h 4,7 UV-I 722 W/m 26,7 km/h (4 Bft)
19.07.2014 15:00 34,3 C 32,7 C 41 % 1010,0 hPa 0,0 l/m 1,00 h 0,00 h 4,2 UV-I 704 W/m 24,8 km/h (4 Bft)
19.07.2014 16:00 34,3 C 34,2 C 40 % 1009,5 hPa 0,0 l/m 1,00 h 0,00 h 2,8 UV-I 558 W/m 23,6 km/h (4 Bft)
19.07.2014 17:00 33,6 C 32,0 C 41 % 1009,0 hPa 0,0 l/m 0,63 h 0,00 h 1,5 UV-I 365 W/m 20,6 km/h (4 Bft)
19.07.2014 18:00 31,7 C 28,7 C 47 % 1008,6 hPa 0,0 l/m 0,07 h 0,00 h 0,6 UV-I 175 W/m 13,0 km/h (3 Bft)
19.07.2014 19:00 30,3 C 24,0 C 53 % 1008,6 hPa 0,0 l/m 0,12 h 0,00 h 0,0 UV-I 120 W/m 9,9 km/h (2 Bft)
19.07.2014 20:00 29,7 C 25,4 C 56 % 1008,4 hPa 0,0 l/m 0,00 h 0,00 h 0,0 UV-I 49 W/m 7,4 km/h (2 Bft)
19.07.2014 21:00 28,8 C 24,6 C 57 % 1008,0 hPa 0,0 l/m 0,00 h 0,00 h 0,0 UV-I 10 W/m 4,1 km/h (1 Bft)
19.07.2014 22:00 26,6 C 23,3 C 67 % 1008,1 hPa 0,0 l/m 0,00 h 0,00 h 0,0 UV-I 0 W/m 0,6 km/h (0 Bft)
19.07.2014 23:00 25,5 C 22,0 C 69 % 1007,9 hPa 0,0 l/m 0,00 h 0,00 h 0,0 UV-I 0 W/m 3,6 km/h (1 Bft)
20.07.2014 00:00 24,9 C 22,1 C 71 % 1008,1 hPa 0,0 l/m 0,00 h 0,00 h 0,0 UV-I 0 W/m 5,1 km/h (1 Bft)
20.07.2014 01:00 23,9 C 21,5 C 75 % 1007,9 hPa 0,0 l/m 0,00 h 0,00 h 0,0 UV-I 0 W/m 3,4 km/h (1 Bft)
20.07.2014 02:00 23,1 C 20,6 C 79 % 1007,9 hPa 0,0 l/m 0,00 h 0,00 h 0,0 UV-I 0 W/m 0,0 km/h (0 Bft)
20.07.2014 03:00 21,8 C 19,5 C 85 % 1007,5 hPa 0,0 l/m 0,00 h 0,00 h 0,0 UV-I 0 W/m 0,1 km/h (0 Bft)
20.07.2014 04:00 21,0 C 19,0 C 89 % 1007,2 hPa 0,0 l/m 0,00 h 0,00 h 0,0 UV-I 0 W/m 0,1 km/h (0 Bft)
20.07.2014 05:00 20,9 C 19,2 C 89 % 1008,3 hPa 0,0 l/m 0,00 h 0,00 h 0,0 UV-I 5 W/m 4,3 km/h (1 Bft)
20.07.2014 06:00 21,2 C 19,4 C 88 % 1008,3 hPa 0,0 l/m 0,00 h 0,00 h 0,0 UV-I 26 W/m 0,1 km/h (0 Bft)
20.07.2014 07:00 21,2 C 20,1 C 90 % 1008,2 hPa 0,0 l/m 0,00 h 0,00 h 0,0 UV-I 77 W/m 0,3 km/h (0 Bft)
20.07.2014 08:00 22,2 C 21,5 C 87 % 1008,2 hPa 0,0 l/m 0,07 h 0,00 h 0,0 UV-I 136 W/m 0,8 km/h (0 Bft)
20.07.2014 09:00 23,4 C 22,3 C 84 % 1008,1 hPa 0,0 l/m 0,57 h 0,00 h 1,2 UV-I 332 W/m 1,1 km/h (0 Bft)
20.07.2014 10:00 26,4 C 28,9 C 74 % 1008,0 hPa 0,0 l/m 1,00 h 0,00 h 2,5 UV-I 629 W/m 7,3 km/h (2 Bft)
20.07.2014 11:00 26,8 C 27,0 C 71 % 1008,0 hPa 0,0 l/m 0,27 h 0,00 h 1,2 UV-I 283 W/m 5,7 km/h (1 Bft)
20.07.2014 12:00 27,0 C 27,6 C 74 % 1008,1 hPa 0,0 l/m 0,67 h 0,00 h 3,2 UV-I 503 W/m 4,5 km/h (1 Bft)
20.07.2014 13:00 28,3 C 29,1 C 70 % 1008,3 hPa 0,0 l/m 0,83 h 0,00 h 3,5 UV-I 562 W/m 9,4 km/h (2 Bft)
20.07.2014 14:00 28,9 C 29,0 C 67 % 1008,4 hPa 0,0 l/m 0,83 h 0,00 h 3,4 UV-I 607 W/m 13,5 km/h (3 Bft)
20.07.2014 15:00 27,4 C 26,2 C 72 % 1008,6 hPa 0,0 l/m 0,00 h 0,37 h 1,0 UV-I 158 W/m 13,1 km/h (3 Bft)
20.07.2014 16:00 20,5 C 18,7 C 91 % 1009,3 hPa 4,8 l/m 0,00 h 1,00 h 0,0 UV-I 75 W/m 21,1 km/h (4 Bft)
20.07.2014 17:00 21,3 C 20,1 C 96 % 1009,4 hPa 0,4 l/m 0,20 h 0,47 h 0,7 UV-I 192 W/m 4,4 km/h (1 Bft)
20.07.2014 18:00 22,0 C 20,9 C 95 % 1009,3 hPa 0,0 l/m 0,00 h 0,00 h 0,1 UV-I 96 W/m 1,7 km/h (1 Bft)
20.07.2014 19:00 22,2 C 21,0 C 96 % 1009,8 hPa 0,0 l/m 0,03 h 0,00 h 0,0 UV-I 91 W/m 0,8 km/h (0 Bft)
20.07.2014 20:00 22,2 C 20,8 C 95 % 1009,8 hPa 0,0 l/m 0,00 h 0,00 h 0,0 UV-I 42 W/m 1,5 km/h (1 Bft)
20.07.2014 21:00 21,6 C 19,7 C 95 % 1010,0 hPa 0,0 l/m 0,03 h 0,00 h 0,0 UV-I 13 W/m 0,1 km/h (0 Bft)
20.07.2014 22:00 21,0 C 19,2 C 97 % 1010,2 hPa 0,0 l/m 0,00 h 0,00 h 0,0 UV-I 0 W/m 0,0 km/h (0 Bft)
20.07.2014 23:00 20,5 C 18,9 C 98 % 1010,4 hPa 0,0 l/m 0,00 h 0,00 h 0,0 UV-I 0 W/m 0,0 km/h (0 Bft)
Min-Datum _ 15.07.14 15.07.14 19.07.14 20.07.14 - - - - - 14.07.14
_ Min-Zeit 02:42 02:16 16:46 03:56 - - - - - 02:30
Minimum _ 13,1 C 11,7 C 38 % 1007,1 hPa - - - - - 0,0 km/h (0 Bft)
Max-Datum _ 19.07.14 18.07.14 14.07.14 16.07.14 20.07.14 14.07.14 14.07.14 18.07.14 14.07.14 20.07.14
_ Max-Zeit 15:50 17:02 00:46 07:48 16:10 14:16 00:06 13:30 15:04 16:08
Maximum _ 34,7 C 37,8 C 99 % 1022,0 hPa 4,8 l/m 0,03 h 0,03 h 5,8 UV-I 1079 W/m 62,8 km/h
W-NW (8 Bft)
Durchschnitt _ 22,3 C 20,9 C 77 % 1015,6 hPa #6,0 l/m #61:34 h #2:20 h 2,2 UV-I 310 W/m 8,4 km/h (2 Bft)
© 2014 W. Hausmann